Time;durP1;ratioP1;P1;durP2;ratioP2;P2;SDS_P1;SDS_P2;PMS_P1;PMS_P2;Temp;Humidity;BMP_temperature;BMP_pressure;BME280_temperature;BME280_humidity;BME280_pressure;Samples;Min_cycle;Max_cycle;Signal;HPM_P1;HPM_P2
2021/03/21 00:01:37;;;;;;;7.05;4.55;;;;;;;;;;5108943;28;20424;-81
2021/03/21 00:04:07;;;;;;;7.70;4.50;;;;;;;;;;5104468;28;20120;-82
2021/03/21 00:06:33;;;;;;;5.70;4.47;;;;;;;;;;5113484;27;20052;-82
2021/03/21 00:09:05;;;;;;;7.85;4.63;;;;;;;;;;5099998;28;20048;-83
2021/03/21 00:11:35;;;;;;;9.48;5.13;;;;;;;;;;5099157;28;20044;-82
2021/03/21 00:14:01;;;;;;;5.97;4.85;;;;;;;;;;5102566;28;20402;-83
2021/03/21 00:16:31;;;;;;;8.18;5.72;;;;;;;;;;5118941;28;20139;-82
2021/03/21 00:18:57;;;;;;;9.18;5.65;;;;;;;;;;5117865;28;20394;-82
2021/03/21 00:21:27;;;;;;;9.55;5.45;;;;;;;;;;5132871;27;20299;-82
2021/03/21 00:23:53;;;;;;;10.63;5.80;;;;;;;;;;5099000;28;20047;-82
2021/03/21 00:26:23;;;;;;;12.75;6.25;;;;;;;;;;5119952;28;20430;-82
2021/03/21 00:28:49;;;;;;;13.27;6.30;;;;;;;;;;5123854;28;20054;-82
2021/03/21 00:31:15;;;;;;;10.02;6.57;;;;;;;;;;5133656;28;20036;-82
2021/03/21 00:33:42;;;;;;;10.27;6.35;;;;;;;;;;5128077;27;20070;-82
2021/03/21 00:36:09;;;;;;;11.07;6.70;;;;;;;;;;5135513;27;20202;-82
2021/03/21 00:38:40;;;;;;;12.90;7.70;;;;;;;;;;5136771;27;20058;-82
2021/03/21 00:41:16;;;;;;;12.55;7.95;;;;;;;;;;5119997;28;20044;-82
2021/03/21 00:43:42;;;;;;;11.35;8.30;;;;;;;;;;5103922;28;20040;-81
2021/03/21 00:46:09;;;;;;;20.05;10.43;;;;;;;;;;5112932;28;20043;-81
2021/03/21 00:48:42;;;;;;;12.60;8.60;;;;;;;;;;5132070;28;20058;-81
2021/03/21 00:51:09;;;;;;;18.83;9.43;;;;;;;;;;5117638;28;20116;-82
2021/03/21 00:53:38;;;;;;;16.30;9.63;;;;;;;;;;5120195;28;20112;-81
2021/03/21 00:56:05;;;;;;;17.25;9.52;;;;;;;;;;5105451;27;20447;-81
2021/03/21 00:58:36;;;;;;;11.82;8.57;;;;;;;;;;5124440;28;20178;-81
2021/03/21 01:01:04;;;;;;;15.45;8.77;;;;;;;;;;5133569;28;20055;-81
2021/03/21 01:03:32;;;;;;;17.17;9.50;;;;;;;;;;5119384;28;20055;-81
2021/03/21 01:06:03;;;;;;;17.27;8.68;;;;;;;;;;5109337;28;20055;-82
2021/03/21 01:08:29;;;;;;;13.55;9.07;;;;;;;;;;5095845;28;20397;-81
2021/03/21 01:11:02;;;;;;;15.70;9.35;;;;;;;;;;5102827;28;20048;-81
2021/03/21 01:13:29;;;;;;;19.92;10.23;;;;;;;;;;5117757;28;20380;-81
2021/03/21 01:16:22;;;;;;;15.90;9.98;;;;;;;;;;5106328;28;20048;-81
2021/03/21 01:18:50;;;;;;;24.23;10.63;;;;;;;;;;5120929;27;20075;-82
2021/03/21 01:21:16;;;;;;;20.38;9.43;;;;;;;;;;5098350;28;20372;-84
2021/03/21 01:23:43;;;;;;;21.58;10.35;;;;;;;;;;5107978;28;20081;-84
2021/03/21 01:26:14;;;;;;;19.83;10.20;;;;;;;;;;5106140;28;20044;-84
2021/03/21 01:28:40;;;;;;;22.88;10.63;;;;;;;;;;5120270;28;20100;-85
2021/03/21 01:31:12;;;;;;;19.40;11.68;;;;;;;;;;5134012;28;20089;-84
2021/03/21 01:33:38;;;;;;;22.98;11.55;;;;;;;;;;5133914;28;20059;-84
2021/03/21 01:36:12;;;;;;;22.52;12.18;;;;;;;;;;5128192;28;20073;-84
2021/03/21 01:38:41;;;;;;;23.73;12.32;;;;;;;;;;5114352;28;20039;-84
2021/03/21 01:41:16;;;;;;;25.33;12.32;;;;;;;;;;5115748;28;20086;-84
2021/03/21 01:43:42;;;;;;;24.08;13.80;;;;;;;;;;5133316;27;20055;-83
2021/03/21 01:46:14;;;;;;;28.02;14.70;;;;;;;;;;5128023;27;20042;-83
2021/03/21 01:48:47;;;;;;;28.10;14.43;;;;;;;;;;5124935;27;20048;-83
2021/03/21 01:51:20;;;;;;;32.38;14.93;;;;;;;;;;5145849;27;20463;-83
2021/03/21 01:53:50;;;;;;;34.33;15.63;;;;;;;;;;5137837;27;20079;-82
2021/03/21 01:56:20;;;;;;;39.03;15.93;;;;;;;;;;5129608;27;20044;-83
2021/03/21 01:58:49;;;;;;;32.70;16.58;;;;;;;;;;5138155;27;20051;-83
2021/03/21 02:01:27;;;;;;;38.08;17.48;;;;;;;;;;5121272;27;20135;-83
2021/03/21 02:03:54;;;;;;;31.80;17.30;;;;;;;;;;5140757;27;20407;-85
2021/03/21 02:06:27;;;;;;;36.92;16.17;;;;;;;;;;5140891;27;20057;-84
2021/03/21 02:09:13;;;;;;;33.53;15.88;;;;;;;;;;5135717;27;20182;-84
2021/03/21 02:11:40;;;;;;;28.23;15.70;;;;;;;;;;5129153;27;20049;-84
2021/03/21 02:17:10;;;;;;;27.30;14.52;;;;;;;;;;5106767;27;20043;-85
2021/03/21 02:19:57;;;;;;;30.75;15.48;;;;;;;;;;5111457;27;20044;-85
2021/03/21 02:22:32;;;;;;;34.33;14.40;;;;;;;;;;5134935;27;20067;-86
2021/03/21 02:25:14;;;;;;;31.48;15.23;;;;;;;;;;5135301;27;20062;-84
2021/03/21 02:28:01;;;;;;;32.83;15.50;;;;;;;;;;5141475;27;20134;-84
2021/03/21 02:30:34;;;;;;;31.25;13.95;;;;;;;;;;5141177;27;20090;-85
2021/03/21 02:33:06;;;;;;;29.15;14.27;;;;;;;;;;5138655;27;20058;-84
2021/03/21 02:35:42;;;;;;;29.52;13.40;;;;;;;;;;5123242;28;20047;-86
2021/03/21 02:38:17;;;;;;;30.90;14.25;;;;;;;;;;5138476;27;20058;-86
2021/03/21 02:40:52;;;;;;;22.85;12.80;;;;;;;;;;5145552;27;20082;-86
2021/03/21 02:43:21;;;;;;;29.95;12.90;;;;;;;;;;5143854;27;20042;-86
2021/03/21 02:45:50;;;;;;;27.65;13.00;;;;;;;;;;5132290;27;20063;-86
2021/03/21 02:48:32;;;;;;;24.33;10.90;;;;;;;;;;5121599;28;20060;-85
2021/03/21 02:51:01;;;;;;;20.08;10.35;;;;;;;;;;5123480;28;20081;-86
2021/03/21 02:53:30;;;;;;;20.58;9.50;;;;;;;;;;5130437;27;20104;-85
2021/03/21 02:55:58;;;;;;;17.58;9.60;;;;;;;;;;5131008;27;20103;-85
2021/03/21 02:58:42;;;;;;;15.93;8.82;;;;;;;;;;5121055;28;20082;-85
2021/03/21 03:01:20;;;;;;;14.80;8.38;;;;;;;;;;5121930;28;20069;-86
2021/03/21 03:03:48;;;;;;;18.03;7.40;;;;;;;;;;5118406;28;20046;-85
2021/03/21 03:06:19;;;;;;;12.25;7.00;;;;;;;;;;5121438;28;20052;-85
2021/03/21 03:08:44;;;;;;;9.98;5.10;;;;;;;;;;5107959;28;20378;-84
2021/03/21 03:11:11;;;;;;;7.57;4.05;;;;;;;;;;5100841;28;20543;-84
2021/03/21 03:13:48;;;;;;;6.50;3.60;;;;;;;;;;5108453;28;20429;-84
2021/03/21 03:16:20;;;;;;;12.25;4.78;;;;;;;;;;5098240;28;20067;-84
2021/03/21 03:19:03;;;;;;;12.63;3.75;;;;;;;;;;5111632;28;20047;-84
2021/03/21 03:21:34;;;;;;;9.00;4.13;;;;;;;;;;5108348;28;20048;-84
2021/03/21 03:24:24;;;;;;;8.73;4.45;;;;;;;;;;5114886;28;20090;-84
2021/03/21 03:26:53;;;;;;;7.95;3.70;;;;;;;;;;5096037;28;20071;-84
2021/03/21 03:29:42;;;;;;;8.20;3.17;;;;;;;;;;5099198;28;20380;-84
2021/03/21 03:32:12;;;;;;;8.68;3.33;;;;;;;;;;5098412;28;20058;-84
2021/03/21 03:34:45;;;;;;;8.20;2.97;;;;;;;;;;5098698;28;20048;-84
2021/03/21 03:37:12;;;;;;;10.93;3.30;;;;;;;;;;5098044;28;20286;-84
2021/03/21 03:39:39;;;;;;;10.98;2.90;;;;;;;;;;5098677;28;20048;-84
2021/03/21 03:42:05;;;;;;;9.32;3.58;;;;;;;;;;5096912;28;20052;-84
2021/03/21 03:44:50;;;;;;;9.65;3.45;;;;;;;;;;5113810;28;20418;-84
2021/03/21 03:47:19;;;;;;;15.45;3.17;;;;;;;;;;5118158;28;20044;-84
2021/03/21 03:50:00;;;;;;;7.30;3.20;;;;;;;;;;5118957;28;20427;-84
2021/03/21 03:52:26;;;;;;;7.57;3.00;;;;;;;;;;5133286;28;20051;-84
2021/03/21 03:54:52;;;;;;;13.18;2.88;;;;;;;;;;5127820;28;20052;-85
2021/03/21 03:57:27;;;;;;;12.38;2.90;;;;;;;;;;5124753;28;20107;-85
2021/03/21 03:59:58;;;;;;;10.65;2.72;;;;;;;;;;5129734;28;20135;-85
2021/03/21 04:02:28;;;;;;;9.57;3.22;;;;;;;;;;5128027;27;20054;-84
2021/03/21 04:05:06;;;;;;;15.00;3.38;;;;;;;;;;5128502;28;20131;-85
2021/03/21 04:07:35;;;;;;;18.67;4.88;;;;;;;;;;5124222;28;20130;-85
2021/03/21 04:10:09;;;;;;;13.98;3.28;;;;;;;;;;5127961;28;20042;-84
2021/03/21 04:12:43;;;;;;;13.45;3.40;;;;;;;;;;5134435;28;20073;-85
2021/03/21 04:15:15;;;;;;;11.95;3.70;;;;;;;;;;5128802;28;20051;-86
2021/03/21 04:17:45;;;;;;;11.18;2.80;;;;;;;;;;5122906;28;20051;-85
2021/03/21 04:20:11;;;;;;;12.75;3.30;;;;;;;;;;5120744;28;20047;-83
2021/03/21 04:22:42;;;;;;;13.40;3.25;;;;;;;;;;5125376;28;20198;-83
2021/03/21 04:25:25;;;;;;;10.65;3.35;;;;;;;;;;5130021;28;20074;-83
2021/03/21 04:27:55;;;;;;;12.65;2.78;;;;;;;;;;5120230;28;20047;-83
2021/03/21 04:30:51;;;;;;;8.82;3.03;;;;;;;;;;5120172;28;20071;-83
2021/03/21 04:33:19;;;;;;;14.73;4.45;;;;;;;;;;5117559;28;20063;-83
2021/03/21 04:36:02;;;;;;;12.18;3.90;;;;;;;;;;5117267;28;20138;-83
2021/03/21 04:38:47;;;;;;;17.17;5.10;;;;;;;;;;5117936;28;20047;-83
2021/03/21 04:41:15;;;;;;;9.98;3.78;;;;;;;;;;5117893;28;20059;-83
2021/03/21 04:43:42;;;;;;;16.88;3.92;;;;;;;;;;5118696;28;20108;-86
2021/03/21 04:46:12;;;;;;;13.60;2.75;;;;;;;;;;5120704;28;20055;-86
2021/03/21 04:48:39;;;;;;;16.38;4.28;;;;;;;;;;5120534;28;20044;-85
2021/03/21 04:51:11;;;;;;;9.43;3.22;;;;;;;;;;5119119;28;20052;-86
2021/03/21 04:53:48;;;;;;;14.25;3.10;;;;;;;;;;5117617;28;20462;-85
2021/03/21 04:56:38;;;;;;;14.60;3.35;;;;;;;;;;5117604;28;20482;-85
2021/03/21 04:59:11;;;;;;;22.80;3.90;;;;;;;;;;5117553;28;20051;-86
2021/03/21 05:01:51;;;;;;;22.05;4.80;;;;;;;;;;5117928;28;20051;-85
2021/03/21 05:04:25;;;;;;;20.33;5.30;;;;;;;;;;5117483;28;20056;-85
2021/03/21 05:07:20;;;;;;;22.83;5.40;;;;;;;;;;5118667;28;20585;-85
2021/03/21 05:09:53;;;;;;;24.88;6.30;;;;;;;;;;5134720;27;20060;-84
2021/03/21 05:12:21;;;;;;;24.00;5.53;;;;;;;;;;5119399;28;20404;-85
2021/03/21 05:15:04;;;;;;;28.25;7.47;;;;;;;;;;5117007;28;20058;-85
2021/03/21 05:17:49;;;;;;;31.83;8.07;;;;;;;;;;5117440;28;20051;-85
2021/03/21 05:20:22;;;;;;;28.23;6.00;;;;;;;;;;5118399;28;20047;-85
2021/03/21 05:22:53;;;;;;;25.27;4.97;;;;;;;;;;5118324;27;20055;-85
2021/03/21 05:25:29;;;;;;;32.25;4.60;;;;;;;;;;5119316;28;20078;-84
2021/03/21 05:27:59;;;;;;;27.67;4.55;;;;;;;;;;5118525;28;20039;-84
2021/03/21 05:30:28;;;;;;;29.17;4.03;;;;;;;;;;5116556;28;20059;-84
2021/03/21 05:32:55;;;;;;;26.40;3.85;;;;;;;;;;5118891;28;20051;-84
2021/03/21 05:35:24;;;;;;;20.38;4.28;;;;;;;;;;5120200;28;20093;-84
2021/03/21 05:38:02;;;;;;;36.53;5.78;;;;;;;;;;5119797;28;20051;-84
2021/03/21 05:40:46;;;;;;;25.52;4.03;;;;;;;;;;5118321;28;20175;-84
2021/03/21 05:43:37;;;;;;;26.83;4.97;;;;;;;;;;5120115;28;20422;-84
2021/03/21 05:46:24;;;;;;;31.58;4.68;;;;;;;;;;5119599;28;20051;-84
2021/03/21 05:48:52;;;;;;;;;;;;;;;;;;5119461;28;20151;-84
2021/03/21 05:51:29;;;;;;;40.55;6.22;;;;;;;;;;5120469;28;19927;-84
2021/03/21 05:53:56;;;;;;;38.40;5.90;;;;;;;;;;5113644;28;20073;-84
2021/03/21 05:56:31;;;;;;;50.13;6.97;;;;;;;;;;5100123;28;20052;-83
2021/03/21 05:59:12;;;;;;;50.23;7.60;;;;;;;;;;5099749;28;20152;-84
2021/03/21 06:01:38;;;;;;;21.30;5.25;;;;;;;;;;5098935;28;20386;-84
2021/03/21 06:04:24;;;;;;;38.80;4.90;;;;;;;;;;5110921;28;20048;-83
2021/03/21 06:06:55;;;;;;;46.33;5.65;;;;;;;;;;5112755;28;20068;-84
2021/03/21 06:09:38;;;;;;;49.03;6.75;;;;;;;;;;5113142;28;20036;-83
2021/03/21 06:12:14;;;;;;;43.55;5.78;;;;;;;;;;5114339;28;20104;-83
2021/03/21 06:14:40;;;;;;;35.10;5.60;;;;;;;;;;5114377;28;20115;-84
2021/03/21 06:17:16;;;;;;;34.70;6.28;;;;;;;;;;5114147;28;20040;-83
2021/03/21 06:19:42;;;;;;;;;;;;;;;;;;5100278;28;20338;-84
2021/03/21 06:22:26;;;;;;;44.03;7.07;;;;;;;;;;5098105;28;19938;-83
2021/03/21 06:25:00;;;;;;;40.88;6.70;;;;;;;;;;5096722;28;20048;-83
2021/03/21 06:27:26;;;;;;;37.80;6.80;;;;;;;;;;5096214;28;20048;-83
2021/03/21 06:30:02;;;;;;;48.58;6.90;;;;;;;;;;5097509;28;20092;-83
2021/03/21 06:32:47;;;;;;;46.33;7.75;;;;;;;;;;5095018;28;20059;-83
2021/03/21 06:35:20;;;;;;;54.20;7.78;;;;;;;;;;5093767;28;20063;-83
2021/03/21 06:38:06;;;;;;;57.35;8.63;;;;;;;;;;5095102;28;20067;-82
2021/03/21 06:40:38;;;;;;;55.97;8.88;;;;;;;;;;5097519;28;20044;-82
2021/03/21 06:43:34;;;;;;;54.70;8.20;;;;;;;;;;5103271;28;20040;-82
2021/03/21 06:46:18;;;;;;;50.92;6.90;;;;;;;;;;5100291;28;20117;-83
2021/03/21 06:48:47;;;;;;;42.50;7.20;;;;;;;;;;5095426;28;20078;-82
2021/03/21 06:51:33;;;;;;;61.40;7.47;;;;;;;;;;5094340;28;20084;-82
2021/03/21 06:54:16;;;;;;;59.63;8.13;;;;;;;;;;5095277;28;20301;-82
2021/03/21 06:56:54;;;;;;;52.45;7.85;;;;;;;;;;5096497;28;20098;-83
2021/03/21 06:59:20;;;;;;;57.13;8.38;;;;;;;;;;5097340;28;20374;-82
2021/03/21 07:02:17;;;;;;;55.15;7.57;;;;;;;;;;5095638;28;20056;-82
2021/03/21 07:04:59;;;;;;;54.70;8.48;;;;;;;;;;5094239;28;20097;-82
2021/03/21 07:07:28;;;;;;;52.35;8.48;;;;;;;;;;5096753;28;20062;-83
2021/03/21 07:10:15;;;;;;;57.75;9.50;;;;;;;;;;5095615;28;20055;-82
2021/03/21 07:12:48;;;;;;;56.10;9.13;;;;;;;;;;5099780;28;20052;-82
2021/03/21 07:15:29;;;;;;;52.90;8.20;;;;;;;;;;5106178;28;20057;-82
2021/03/21 07:17:58;;;;;;;61.17;9.85;;;;;;;;;;5107010;28;20072;-82
2021/03/21 07:20:27;;;;;;;55.92;8.27;;;;;;;;;;5100547;28;20052;-82
2021/03/21 07:23:19;;;;;;;61.45;7.80;;;;;;;;;;5096634;28;20055;-83
2021/03/21 07:26:06;;;;;;;60.58;9.30;;;;;;;;;;5096419;28;20050;-82
2021/03/21 07:28:58;;;;;;;49.83;8.05;;;;;;;;;;5096696;28;20052;-82
2021/03/21 07:31:43;;;;;;;61.17;8.82;;;;;;;;;;5095809;28;20064;-82
2021/03/21 07:34:18;;;;;;;70.78;9.20;;;;;;;;;;5095101;28;20055;-82
2021/03/21 07:36:54;;;;;;;60.40;8.73;;;;;;;;;;5095748;28;20282;-82
2021/03/21 07:39:35;;;;;;;60.90;10.00;;;;;;;;;;5096013;28;20138;-82
2021/03/21 07:42:20;;;;;;;54.13;8.63;;;;;;;;;;5100037;28;20051;-82
2021/03/21 07:45:01;;;;;;;51.80;9.05;;;;;;;;;;5121227;28;20040;-80
2021/03/21 07:47:53;;;;;;;49.60;8.45;;;;;;;;;;5132211;28;20061;-81
2021/03/21 07:50:19;;;;;;;58.58;9.05;;;;;;;;;;5130799;28;20096;-82
2021/03/21 07:52:53;;;;;;;48.72;8.60;;;;;;;;;;5119185;28;20373;-83
2021/03/21 07:55:31;;;;;;;55.35;9.88;;;;;;;;;;5118066;28;20079;-81
2021/03/21 07:58:33;;;;;;;65.28;8.75;;;;;;;;;;5126276;28;20086;-81
2021/03/21 08:00:59;;;;;;;57.17;9.35;;;;;;;;;;5110775;28;20051;-82
2021/03/21 08:03:26;;;;;;;60.88;8.25;;;;;;;;;;5120534;28;20116;-82
2021/03/21 08:05:53;;;;;;;58.67;8.18;;;;;;;;;;5120935;28;20051;-82
2021/03/21 08:08:32;;;;;;;56.53;9.27;;;;;;;;;;5119869;28;20048;-82
2021/03/21 08:11:01;;;;;;;57.22;10.02;;;;;;;;;;5116733;28;20059;-82
2021/03/21 08:13:36;;;;;;;51.33;7.88;;;;;;;;;;5118333;28;20514;-83
2021/03/21 08:16:14;;;;;;;68.93;9.88;;;;;;;;;;5136805;27;20112;-82
2021/03/21 08:18:42;;;;;;;66.03;8.30;;;;;;;;;;5140026;27;20387;-83
2021/03/21 08:21:13;;;;;;;54.90;8.77;;;;;;;;;;5138157;27;20051;-83
2021/03/21 08:23:40;;;;;;;61.50;9.25;;;;;;;;;;5139092;27;20050;-83
2021/03/21 08:26:09;;;;;;;55.00;6.90;;;;;;;;;;5121532;27;20277;-83
2021/03/21 08:28:57;;;;;;;60.53;10.68;;;;;;;;;;5116522;28;20404;-83
2021/03/21 08:31:27;;;;;;;50.78;8.70;;;;;;;;;;5117089;28;20063;-83
2021/03/21 08:33:54;;;;;;;64.68;8.88;;;;;;;;;;5116510;28;20055;-83
2021/03/21 08:36:27;;;;;;;61.45;8.02;;;;;;;;;;5119345;28;20057;-83
2021/03/21 08:38:56;;;;;;;56.80;9.90;;;;;;;;;;5116757;27;20082;-83
2021/03/21 08:41:23;;;;;;;49.13;9.00;;;;;;;;;;5115983;28;20150;-83
2021/03/21 08:43:58;;;;;;;54.63;10.05;;;;;;;;;;5118192;28;20239;-83
2021/03/21 08:46:28;;;;;;;61.72;7.88;;;;;;;;;;5118806;28;20063;-83
2021/03/21 08:49:02;;;;;;;60.85;7.85;;;;;;;;;;5119041;28;20097;-84
2021/03/21 08:51:37;;;;;;;57.08;8.32;;;;;;;;;;5117231;28;20118;-84
2021/03/21 08:54:09;;;;;;;61.40;7.43;;;;;;;;;;5118668;27;20637;-84
2021/03/21 08:56:55;;;;;;;56.95;8.43;;;;;;;;;;5118118;28;20453;-83
2021/03/21 08:59:21;;;;;;;47.92;8.82;;;;;;;;;;5117829;28;20050;-84
2021/03/21 09:01:58;;;;;;;44.40;7.82;;;;;;;;;;5116036;28;20100;-84
2021/03/21 09:04:26;;;;;;;57.50;8.20;;;;;;;;;;5115599;28;20051;-83
2021/03/21 09:06:53;;;;;;;52.90;7.95;;;;;;;;;;5115771;28;20069;-83
2021/03/21 09:09:21;;;;;;;49.42;8.25;;;;;;;;;;5114820;28;20060;-83
2021/03/21 09:11:48;;;;;;;52.67;8.02;;;;;;;;;;5114854;28;20058;-83
2021/03/21 09:14:20;;;;;;;52.60;8.52;;;;;;;;;;5115838;27;20077;-83
2021/03/21 09:16:57;;;;;;;54.70;8.98;;;;;;;;;;5114018;28;20043;-83
2021/03/21 09:19:29;;;;;;;55.28;8.38;;;;;;;;;;5116100;27;20054;-83
2021/03/21 09:21:57;;;;;;;43.40;5.57;;;;;;;;;;5114625;28;20359;-84
2021/03/21 09:24:26;;;;;;;50.85;8.27;;;;;;;;;;5116222;28;20055;-84
2021/03/21 09:26:52;;;;;;;45.78;7.22;;;;;;;;;;5116619;28;20043;-84
2021/03/21 09:29:31;;;;;;;54.08;7.30;;;;;;;;;;5116275;28;20100;-84
2021/03/21 09:32:03;;;;;;;57.90;7.85;;;;;;;;;;5116622;28;20060;-84
2021/03/21 09:34:49;;;;;;;53.80;8.10;;;;;;;;;;5118243;28;20052;-84
2021/03/21 09:37:21;;;;;;;57.00;8.25;;;;;;;;;;5125596;28;20040;-83
2021/03/21 09:40:00;;;;;;;50.78;8.13;;;;;;;;;;5124153;28;20233;-84
2021/03/21 09:42:26;;;;;;;53.40;8.77;;;;;;;;;;5094851;28;20048;-83
2021/03/21 09:44:58;;;;;;;53.08;8.65;;;;;;;;;;5100913;27;20062;-84
2021/03/21 09:47:27;;;;;;;65.65;8.50;;;;;;;;;;5114792;27;20048;-83
2021/03/21 09:50:01;;;;;;;63.70;8.13;;;;;;;;;;5114339;28;20054;-84
2021/03/21 09:52:42;;;;;;;52.50;8.43;;;;;;;;;;5114743;28;20051;-83
2021/03/21 09:55:30;;;;;;;50.50;7.00;;;;;;;;;;5124535;27;20055;-83
2021/03/21 09:58:02;;;;;;;56.70;7.38;;;;;;;;;;5135616;27;20108;-83
2021/03/21 10:00:33;;;;;;;48.17;6.78;;;;;;;;;;5114850;28;20048;-83
2021/03/21 10:03:01;;;;;;;48.20;7.95;;;;;;;;;;5114889;27;20107;-83
2021/03/21 10:05:32;;;;;;;44.33;6.97;;;;;;;;;;5095346;28;20055;-83
2021/03/21 10:08:15;;;;;;;56.83;8.15;;;;;;;;;;5094009;28;20466;-83
2021/03/21 10:11:11;;;;;;;37.10;6.63;;;;;;;;;;5109227;27;20116;-83
2021/03/21 10:13:49;;;;;;;45.03;6.95;;;;;;;;;;5082030;28;20050;-83
2021/03/21 10:16:19;;;;;;;47.58;7.93;;;;;;;;;;5117078;28;20470;-83
2021/03/21 10:18:52;;;;;;;41.40;8.38;;;;;;;;;;5120071;28;20162;-83
2021/03/21 10:21:22;;;;;;;38.58;6.85;;;;;;;;;;5123371;28;20258;-83
2021/03/21 10:23:51;;;;;;;38.13;6.68;;;;;;;;;;5123676;28;20094;-84
2021/03/21 10:26:21;;;;;;;41.58;6.65;;;;;;;;;;5117871;28;20048;-84
2021/03/21 10:28:48;;;;;;;36.53;6.78;;;;;;;;;;5116322;28;20039;-84
2021/03/21 10:31:35;;;;;;;35.65;6.95;;;;;;;;;;5113667;28;20117;-84
2021/03/21 10:34:10;;;;;;;44.45;6.78;;;;;;;;;;5119244;28;20084;-84
2021/03/21 10:36:38;;;;;;;37.33;7.32;;;;;;;;;;5117585;28;20058;-84
2021/03/21 10:39:09;;;;;;;33.67;6.38;;;;;;;;;;5115396;28;20126;-82
2021/03/21 10:41:54;;;;;;;32.08;6.78;;;;;;;;;;5117139;28;20043;-83
2021/03/21 10:44:42;;;;;;;35.17;6.85;;;;;;;;;;5136859;27;20073;-83
2021/03/21 10:47:33;;;;;;;45.53;7.32;;;;;;;;;;5134487;27;20047;-83
2021/03/21 10:50:29;;;;;;;31.67;6.07;;;;;;;;;;5134648;27;20457;-83
2021/03/21 10:53:08;;;;;;;46.80;7.32;;;;;;;;;;5102038;28;20087;-83
2021/03/21 10:55:35;;;;;;;41.63;6.60;;;;;;;;;;5113859;28;20044;-83
2021/03/21 10:58:29;;;;;;;32.47;6.32;;;;;;;;;;5102826;28;20216;-83
2021/03/21 11:01:14;;;;;;;40.40;6.78;;;;;;;;;;5094384;28;20084;-83
2021/03/21 11:03:41;;;;;;;46.13;7.10;;;;;;;;;;5093133;28;20040;-83
2021/03/21 11:06:18;;;;;;;40.92;6.53;;;;;;;;;;5093803;28;20051;-83
2021/03/21 11:08:45;;;;;;;43.58;7.03;;;;;;;;;;5092934;28;20385;-83
2021/03/21 11:11:16;;;;;;;44.65;7.05;;;;;;;;;;5094923;28;20048;-84
2021/03/21 11:13:43;;;;;;;33.17;7.13;;;;;;;;;;5101541;28;20059;-83
2021/03/21 11:16:10;;;;;;;41.92;6.00;;;;;;;;;;5113829;27;20260;-83
2021/03/21 11:18:37;;;;;;;36.88;6.75;;;;;;;;;;5098819;28;20044;-83
2021/03/21 11:21:16;;;;;;;33.30;5.38;;;;;;;;;;5121572;28;20105;-84
2021/03/21 11:23:47;;;;;;;41.83;6.88;;;;;;;;;;5125008;28;20093;-84
2021/03/21 11:26:25;;;;;;;41.58;7.47;;;;;;;;;;5117125;28;20216;-83
2021/03/21 11:28:53;;;;;;;39.30;6.65;;;;;;;;;;5113673;28;20048;-83
2021/03/21 11:31:37;;;;;;;43.53;7.40;;;;;;;;;;5116317;27;20060;-83
2021/03/21 11:34:22;;;;;;;44.75;6.30;;;;;;;;;;5128297;28;20073;-84
2021/03/21 11:36:58;;;;;;;33.30;5.70;;;;;;;;;;5116176;28;20058;-84
2021/03/21 11:39:33;;;;;;;34.88;7.13;;;;;;;;;;5111619;28;20222;-83
2021/03/21 11:42:00;;;;;;;47.70;6.70;;;;;;;;;;5119914;27;20092;-83
2021/03/21 11:44:28;;;;;;;40.70;7.13;;;;;;;;;;5109149;28;20238;-84
2021/03/21 11:47:15;;;;;;;44.25;6.57;;;;;;;;;;5107494;28;20043;-84
2021/03/21 11:49:41;;;;;;;38.50;7.57;;;;;;;;;;5121845;28;20104;-84
2021/03/21 11:52:08;;;;;;;31.65;5.82;;;;;;;;;;5116352;28;20062;-84
2021/03/21 11:54:37;;;;;;;27.83;5.07;;;;;;;;;;5113299;28;20191;-85
2021/03/21 11:57:06;;;;;;;37.42;6.38;;;;;;;;;;5113358;28;20224;-84
2021/03/21 11:59:43;;;;;;;33.63;6.50;;;;;;;;;;5118254;28;20051;-84
2021/03/21 12:02:22;;;;;;;28.53;4.67;;;;;;;;;;5122948;28;20103;-84
2021/03/21 12:04:52;;;;;;;30.58;5.65;;;;;;;;;;5123150;28;20057;-84
2021/03/21 12:07:29;;;;;;;39.78;6.10;;;;;;;;;;5112386;28;20054;-85
2021/03/21 12:10:03;;;;;;;27.70;5.05;;;;;;;;;;5116208;28;20071;-84
2021/03/21 12:12:29;;;;;;;31.63;5.05;;;;;;;;;;5112165;28;20118;-84
2021/03/21 12:14:57;;;;;;;31.63;5.63;;;;;;;;;;5112432;28;20385;-84
2021/03/21 12:17:31;;;;;;;42.80;5.93;;;;;;;;;;5111793;28;20112;-84
2021/03/21 12:20:18;;;;;;;21.75;5.32;;;;;;;;;;5112053;28;20431;-84
2021/03/21 12:22:47;;;;;;;32.75;5.70;;;;;;;;;;5111153;28;20335;-84
2021/03/21 12:25:30;;;;;;;35.20;6.13;;;;;;;;;;5111305;28;20043;-84
2021/03/21 12:28:13;;;;;;;39.92;5.65;;;;;;;;;;5115520;28;20044;-84
2021/03/21 12:30:44;;;;;;;37.92;6.00;;;;;;;;;;5129607;28;20038;-82
2021/03/21 12:33:11;;;;;;;37.15;5.60;;;;;;;;;;5123366;28;20273;-82
2021/03/21 12:35:40;;;;;;;39.65;5.65;;;;;;;;;;5116069;28;20058;-82
2021/03/21 12:38:11;;;;;;;43.10;5.93;;;;;;;;;;5111817;28;20103;-82
2021/03/21 12:40:45;;;;;;;32.53;6.40;;;;;;;;;;5095969;28;20054;-81
2021/03/21 12:43:31;;;;;;;35.67;5.03;;;;;;;;;;5094953;28;20051;-82
2021/03/21 12:46:00;;;;;;;39.70;6.28;;;;;;;;;;5103877;28;20036;-81
2021/03/21 12:48:27;;;;;;;36.42;5.82;;;;;;;;;;5115141;28;20063;-82
2021/03/21 12:50:53;;;;;;;34.20;6.07;;;;;;;;;;5113981;28;20293;-81
2021/03/21 12:53:22;;;;;;;31.77;5.20;;;;;;;;;;5116766;28;20043;-82
2021/03/21 12:55:49;;;;;;;29.83;5.15;;;;;;;;;;5115741;28;20051;-82
2021/03/21 12:58:18;;;;;;;28.88;5.40;;;;;;;;;;5111006;28;20043;-82
2021/03/21 13:00:48;;;;;;;31.40;5.63;;;;;;;;;;5113823;28;20155;-82
2021/03/21 13:03:22;;;;;;;28.90;5.35;;;;;;;;;;5113417;28;20084;-82
2021/03/21 13:05:49;;;;;;;35.17;6.75;;;;;;;;;;5118806;28;20407;-81
2021/03/21 13:08:19;;;;;;;29.30;5.38;;;;;;;;;;5123491;28;20059;-83
2021/03/21 13:11:11;;;;;;;27.60;5.30;;;;;;;;;;5123296;28;20225;-80
2021/03/21 13:13:38;;;;;;;27.48;5.45;;;;;;;;;;5116068;28;20075;-81
2021/03/21 13:16:04;;;;;;;32.47;4.85;;;;;;;;;;5114528;28;20182;-81
2021/03/21 13:18:31;;;;;;;34.55;5.47;;;;;;;;;;5116012;28;20148;-80
2021/03/21 13:20:59;;;;;;;31.42;5.65;;;;;;;;;;5116821;27;20112;-80
2021/03/21 13:23:29;;;;;;;34.83;5.90;;;;;;;;;;5116427;28;20056;-81
2021/03/21 13:25:55;;;;;;;28.30;5.97;;;;;;;;;;5119737;28;20044;-81
2021/03/21 13:28:21;;;;;;;36.80;7.53;;;;;;;;;;5116497;28;20101;-82
2021/03/21 13:30:53;;;;;;;30.67;5.25;;;;;;;;;;5101387;28;20070;-82
2021/03/21 13:33:25;;;;;;;35.47;5.50;;;;;;;;;;5095059;28;20359;-82
2021/03/21 13:35:55;;;;;;;42.17;5.22;;;;;;;;;;5098376;28;20052;-81
2021/03/21 13:38:26;;;;;;;26.92;4.68;;;;;;;;;;5095697;28;20059;-81
2021/03/21 13:40:53;;;;;;;29.80;4.95;;;;;;;;;;5105567;28;20036;-82
2021/03/21 13:43:23;;;;;;;27.65;5.22;;;;;;;;;;5116487;28;20138;-82
2021/03/21 13:45:52;;;;;;;30.95;6.03;;;;;;;;;;5115144;28;20052;-81
2021/03/21 13:48:19;;;;;;;31.23;5.40;;;;;;;;;;5118009;28;20167;-82
2021/03/21 13:50:49;;;;;;;21.67;4.00;;;;;;;;;;5119930;28;20462;-82
2021/03/21 13:53:16;;;;;;;30.58;4.32;;;;;;;;;;5120787;28;20331;-83
2021/03/21 13:55:45;;;;;;;35.88;5.45;;;;;;;;;;5121074;28;20105;-82
2021/03/21 13:58:13;;;;;;;23.65;4.30;;;;;;;;;;5118724;28;20043;-82
2021/03/21 14:00:39;;;;;;;32.92;5.25;;;;;;;;;;5117811;28;20055;-81
2021/03/21 14:03:08;;;;;;;26.52;5.15;;;;;;;;;;5119097;27;20156;-81
2021/03/21 14:05:36;;;;;;;43.83;6.18;;;;;;;;;;5118377;28;20117;-81
2021/03/21 14:08:06;;;;;;;36.20;4.88;;;;;;;;;;5119386;28;20403;-81
2021/03/21 14:10:32;;;;;;;31.50;5.00;;;;;;;;;;5116486;28;20374;-82
2021/03/21 14:13:02;;;;;;;36.33;5.82;;;;;;;;;;5116027;27;20325;-82
2021/03/21 14:15:30;;;;;;;30.92;4.85;;;;;;;;;;5116147;28;20151;-82
2021/03/21 14:18:02;;;;;;;29.15;4.10;;;;;;;;;;5117038;28;20075;-82
2021/03/21 14:20:31;;;;;;;29.95;5.60;;;;;;;;;;5098121;28;20040;-81
2021/03/21 14:23:01;;;;;;;39.85;5.40;;;;;;;;;;5095808;28;20044;-80
2021/03/21 14:25:27;;;;;;;35.88;5.32;;;;;;;;;;5095335;28;20070;-81
2021/03/21 14:27:59;;;;;;;31.38;4.57;;;;;;;;;;5095680;28;20052;-81
2021/03/21 14:30:34;;;;;;;38.20;6.47;;;;;;;;;;5098158;28;20070;-81
2021/03/21 14:33:04;;;;;;;33.25;5.22;;;;;;;;;;5112216;28;20086;-80
2021/03/21 14:35:35;;;;;;;28.73;5.57;;;;;;;;;;5113240;28;20048;-80
2021/03/21 14:38:05;;;;;;;34.42;4.90;;;;;;;;;;5117018;28;20043;-80
2021/03/21 14:40:35;;;;;;;28.08;4.97;;;;;;;;;;5115136;28;20085;-80
2021/03/21 14:43:05;;;;;;;34.42;6.03;;;;;;;;;;5114177;28;20047;-81
2021/03/21 14:45:39;;;;;;;34.88;4.00;;;;;;;;;;5115593;28;20371;-81
2021/03/21 14:48:08;;;;;;;28.02;5.10;;;;;;;;;;5115084;28;20040;-81
2021/03/21 14:50:41;;;;;;;36.63;4.78;;;;;;;;;;5113861;28;20043;-81
2021/03/21 14:53:20;;;;;;;25.83;4.00;;;;;;;;;;5123753;28;20438;-81
2021/03/21 14:55:55;;;;;;;34.50;4.68;;;;;;;;;;5121197;28;20320;-79
2021/03/21 14:58:28;;;;;;;27.27;3.80;;;;;;;;;;5119366;28;20556;-81
2021/03/21 15:01:02;;;;;;;26.27;3.58;;;;;;;;;;5116217;28;20055;-80
2021/03/21 15:03:37;;;;;;;37.10;4.82;;;;;;;;;;5115438;28;20186;-80
2021/03/21 15:06:04;;;;;;;27.05;3.92;;;;;;;;;;5124090;28;20040;-81
2021/03/21 15:08:32;;;;;;;32.75;4.88;;;;;;;;;;5119957;28;20055;-80
2021/03/21 15:10:59;;;;;;;27.10;4.18;;;;;;;;;;5114005;28;20117;-81